Time;durP1;ratioP1;P1;durP2;ratioP2;P2;SDS_P1;SDS_P2;PMS_P1;PMS_P2;Temp;Humidity;BMP_temperature;BMP_pressure;BME280_temperature;BME280_humidity;BME280_pressure;Samples;Min_cycle;Max_cycle;Signal;HPM_P1;HPM_P2
2021/09/19 00:02:21;;;;;;;4.13;3.63;;;14.40;1.00;;;;;;5046147;28;20432;-78
2021/09/19 00:04:49;;;;;;;5.73;4.60;;;14.30;1.00;;;;;;5047216;28;20657;-77
2021/09/19 00:07:16;;;;;;;4.37;3.90;;;14.30;1.00;;;;;;5046563;28;20438;-78
2021/09/19 00:09:42;;;;;;;6.53;4.00;;;14.30;1.00;;;;;;5066541;28;20443;-79
2021/09/19 00:12:09;;;;;;;6.73;4.93;;;14.30;1.00;;;;;;5047411;28;20926;-79
2021/09/19 00:14:37;;;;;;;4.23;3.83;;;14.30;1.00;;;;;;5050289;28;20460;-77
2021/09/19 00:17:04;;;;;;;5.47;4.00;;;14.30;1.00;;;;;;5048153;28;20555;-78
2021/09/19 00:19:31;;;;;;;5.60;3.93;;;14.30;1.00;;;;;;5052342;28;20559;-77
2021/09/19 00:21:59;;;;;;;4.83;3.93;;;14.30;1.00;;;;;;5055062;28;20540;-77
2021/09/19 00:24:26;;;;;;;4.77;4.17;;;14.20;1.00;;;;;;5049155;28;20440;-78
2021/09/19 00:26:53;;;;;;;6.00;4.20;;;14.30;1.00;;;;;;5045942;28;20439;-78
2021/09/19 00:29:19;;;;;;;5.70;4.33;;;14.20;1.00;;;;;;5048630;28;20453;-77
2021/09/19 00:31:46;;;;;;;4.33;3.90;;;14.30;1.00;;;;;;5049678;28;20435;-78
2021/09/19 00:34:13;;;;;;;4.77;4.00;;;14.20;1.00;;;;;;5046394;28;20443;-78
2021/09/19 00:36:40;;;;;;;7.87;5.80;;;14.20;1.00;;;;;;5047431;28;20501;-76
2021/09/19 00:39:08;;;;;;;5.63;4.70;;;14.20;1.00;;;;;;5049463;28;20464;-77
2021/09/19 00:41:35;;;;;;;5.07;4.47;;;14.20;1.00;;;;;;5049057;28;20437;-77
2021/09/19 00:44:05;;;;;;;7.47;4.43;;;14.20;1.00;;;;;;5043447;28;20705;-75
2021/09/19 00:46:32;;;;;;;5.30;4.70;;;14.20;1.00;;;;;;5050008;28;20531;-76
2021/09/19 00:48:59;;;;;;;7.10;4.80;;;14.20;1.00;;;;;;5051712;28;20479;-76
2021/09/19 00:51:27;;;;;;;4.63;4.23;;;14.20;1.00;;;;;;5034334;28;20436;-77
2021/09/19 00:53:56;;;;;;;5.90;4.47;;;14.20;1.00;;;;;;5051260;28;20929;-76
2021/09/19 00:56:26;;;;;;;4.70;4.07;;;14.20;1.00;;;;;;5048725;28;20454;-76
2021/09/19 00:58:55;;;;;;;5.13;4.43;;;14.20;1.00;;;;;;5048122;28;20539;-77
2021/09/19 01:01:22;;;;;;;5.70;4.30;;;14.20;1.00;;;;;;5049383;28;20461;-78
2021/09/19 01:03:48;;;;;;;5.80;4.10;;;14.20;1.00;;;;;;5042598;28;20465;-78
2021/09/19 01:06:16;;;;;;;6.33;4.00;;;14.20;1.00;;;;;;5049338;28;20420;-77
2021/09/19 01:08:43;;;;;;;5.37;4.60;;;14.20;1.00;;;;;;5047049;28;21070;-77
2021/09/19 01:11:11;;;;;;;6.77;4.07;;;14.10;1.00;;;;;;5048610;28;20450;-78
2021/09/19 01:13:41;;;;;;;6.50;5.03;;;14.10;1.00;;;;;;5046824;28;22052;-78
2021/09/19 01:16:09;;;;;;;7.00;4.30;;;14.10;1.00;;;;;;5050313;28;20453;-77
2021/09/19 01:18:38;;;;;;;6.17;5.23;;;14.10;1.00;;;;;;5051287;28;20459;-77
2021/09/19 01:21:04;;;;;;;5.40;4.60;;;14.10;1.00;;;;;;5049427;28;20528;-78
2021/09/19 01:23:33;;;;;;;9.87;8.87;;;14.10;1.00;;;;;;5050106;28;20543;-75
2021/09/19 01:26:01;;;;;;;7.00;6.30;;;14.10;1.00;;;;;;5049454;28;23154;-77
2021/09/19 01:28:28;;;;;;;6.53;4.83;;;14.10;1.00;;;;;;5053107;28;20452;-77
2021/09/19 01:30:55;;;;;;;5.33;4.40;;;14.10;1.00;;;;;;5052547;28;20498;-76
2021/09/19 01:33:22;;;;;;;7.70;4.63;;;14.10;1.00;;;;;;5046481;28;20473;-76
2021/09/19 01:35:49;;;;;;;5.47;4.47;;;14.10;1.00;;;;;;5052241;28;20455;-77
2021/09/19 01:38:16;;;;;;;5.43;4.70;;;14.10;1.00;;;;;;5048942;28;20452;-76
2021/09/19 01:40:44;;;;;;;7.20;4.60;;;14.00;1.00;;;;;;5052137;28;20550;-79
2021/09/19 01:43:11;;;;;;;6.03;4.60;;;14.00;1.00;;;;;;5065093;28;20972;-77
2021/09/19 01:45:40;;;;;;;8.37;5.03;;;14.00;1.00;;;;;;5060155;28;20474;-77
2021/09/19 01:48:07;;;;;;;5.60;4.63;;;14.00;1.00;;;;;;5057378;28;20420;-75
2021/09/19 01:50:34;;;;;;;4.53;3.93;;;14.00;1.00;;;;;;5050229;28;20527;-76
2021/09/19 01:53:02;;;;;;;4.90;4.20;;;14.10;1.00;;;;;;5052802;28;20567;-76
2021/09/19 01:55:29;;;;;;;5.87;5.27;;;14.10;1.00;;;;;;5057984;28;20894;-76
2021/09/19 01:57:57;;;;;;;7.63;4.80;;;14.00;1.00;;;;;;5057144;28;20537;-75
2021/09/19 02:00:25;;;;;;;8.40;5.00;;;14.00;1.00;;;;;;5057003;28;21139;-78
2021/09/19 02:02:52;;;;;;;6.53;4.43;;;14.00;1.00;;;;;;5054186;28;20463;-77
2021/09/19 02:05:19;;;;;;;6.27;4.70;;;14.00;1.00;;;;;;5049952;28;20447;-76
2021/09/19 02:07:46;;;;;;;6.70;5.00;;;14.00;1.00;;;;;;5053254;28;20429;-78
2021/09/19 02:10:18;;;;;;;5.87;4.93;;;14.00;1.00;;;;;;5052580;28;20552;-77
2021/09/19 02:12:44;;;;;;;6.23;5.57;;;14.10;1.00;;;;;;5048830;28;21500;-78
2021/09/19 02:15:15;;;;;;;6.87;4.97;;;14.00;1.00;;;;;;5044505;28;20436;-78
2021/09/19 02:17:41;;;;;;;5.33;4.30;;;14.00;1.00;;;;;;5047212;28;20447;-79
2021/09/19 02:20:11;;;;;;;5.43;4.50;;;14.00;1.00;;;;;;5051173;28;20440;-78
2021/09/19 02:22:38;;;;;;;5.20;4.30;;;13.90;1.00;;;;;;5044225;28;20651;-77
2021/09/19 02:25:07;;;;;;;6.20;4.77;;;13.90;1.00;;;;;;5047190;28;20448;-78
2021/09/19 02:27:35;;;;;;;6.27;5.57;;;13.90;1.00;;;;;;5050960;28;20450;-77
2021/09/19 02:30:02;;;;;;;5.73;4.83;;;13.90;1.00;;;;;;5047474;28;20451;-76
2021/09/19 02:32:30;;;;;;;5.53;4.87;;;13.90;1.00;;;;;;5044626;28;20491;-78
2021/09/19 02:34:57;;;;;;;5.70;4.90;;;14.00;1.00;;;;;;5045219;28;20460;-78
2021/09/19 02:37:24;;;;;;;6.07;5.47;;;13.90;1.00;;;;;;5047755;28;21995;-76
2021/09/19 02:39:51;;;;;;;6.57;4.40;;;13.90;1.00;;;;;;5053045;28;20459;-76
2021/09/19 02:42:17;;;;;;;8.20;4.93;;;13.90;1.00;;;;;;5040670;28;20452;-78
2021/09/19 02:44:44;;;;;;;6.10;4.70;;;13.90;1.00;;;;;;5046698;28;20839;-78
2021/09/19 02:47:11;;;;;;;6.47;4.90;;;13.80;1.00;;;;;;5043944;28;20444;-78
2021/09/19 02:49:39;;;;;;;5.90;4.57;;;13.90;1.00;;;;;;5047273;28;20471;-79
2021/09/19 02:52:06;;;;;;;8.17;5.07;;;13.90;1.00;;;;;;5042123;28;20467;-77
2021/09/19 02:54:33;;;;;;;7.20;4.00;;;13.90;1.00;;;;;;5045439;28;20547;-78
2021/09/19 02:56:59;;;;;;;6.57;5.70;;;13.90;1.00;;;;;;5046340;28;20448;-77
2021/09/19 02:59:26;;;;;;;6.57;4.20;;;13.90;1.00;;;;;;5043847;28;20443;-79
2021/09/19 03:01:53;;;;;;;5.33;4.70;;;13.80;1.00;;;;;;5052824;28;20564;-79
2021/09/19 03:04:19;;;;;;;7.30;4.90;;;13.80;1.00;;;;;;5042188;28;20456;-77
2021/09/19 03:06:47;;;;;;;7.33;5.50;;;13.80;1.00;;;;;;5055377;28;20440;-77
2021/09/19 03:09:14;;;;;;;5.33;4.70;;;13.80;1.00;;;;;;5050519;28;20444;-78
2021/09/19 03:11:40;;;;;;;5.77;4.63;;;13.80;1.00;;;;;;5045329;28;20539;-77
2021/09/19 03:14:07;;;;;;;7.70;5.30;;;13.80;1.00;;;;;;5047070;28;20458;-78
2021/09/19 03:16:34;;;;;;;4.90;4.40;;;13.80;1.00;;;;;;5044947;28;20425;-78
2021/09/19 03:19:00;;;;;;;6.37;4.50;;;13.80;1.00;;;;;;5049436;28;21203;-79
2021/09/19 03:21:27;;;;;;;5.70;4.63;;;13.80;1.00;;;;;;5049854;28;20452;-78
2021/09/19 03:23:55;;;;;;;7.77;4.53;;;13.80;1.00;;;;;;5047987;28;20448;-77
2021/09/19 03:26:22;;;;;;;5.50;4.43;;;13.80;1.00;;;;;;5046576;28;20449;-79
2021/09/19 03:28:48;;;;;;;7.43;5.40;;;13.80;1.00;;;;;;5049416;28;21191;-78
2021/09/19 03:31:15;;;;;;;5.00;4.20;;;13.80;1.00;;;;;;5052588;28;20463;-77
2021/09/19 03:33:42;;;;;;;5.00;4.00;;;13.80;1.00;;;;;;5047629;28;20534;-77
2021/09/19 03:36:09;;;;;;;5.60;4.77;;;13.80;1.00;;;;;;5050174;28;20463;-79
2021/09/19 03:38:35;;;;;;;5.07;4.57;;;13.70;1.00;;;;;;5049873;28;20445;-76
2021/09/19 03:41:03;;;;;;;8.50;5.30;;;13.70;1.00;;;;;;5049169;28;21291;-78
2021/09/19 03:43:30;;;;;;;6.67;4.70;;;13.70;1.00;;;;;;5049416;28;24874;-77
2021/09/19 03:45:57;;;;;;;4.87;4.20;;;13.70;1.00;;;;;;5048750;28;20440;-77
2021/09/19 03:48:23;;;;;;;5.20;4.40;;;13.70;1.00;;;;;;5050259;28;20456;-76
2021/09/19 03:50:50;;;;;;;5.43;4.40;;;13.70;1.00;;;;;;5051082;28;20430;-76
2021/09/19 03:53:17;;;;;;;5.13;4.50;;;13.70;1.00;;;;;;5049201;28;20419;-75
2021/09/19 03:55:44;;;;;;;9.30;5.07;;;13.70;1.00;;;;;;5050285;28;20550;-78
2021/09/19 03:58:12;;;;;;;7.23;4.50;;;13.70;1.00;;;;;;5052390;28;20952;-76
2021/09/19 04:00:38;;;;;;;9.03;4.80;;;13.70;1.00;;;;;;5065547;28;20451;-76
2021/09/19 04:03:05;;;;;;;5.03;4.40;;;13.60;1.00;;;;;;5051892;28;20444;-78
2021/09/19 04:05:32;;;;;;;5.73;4.77;;;13.60;1.00;;;;;;5055357;28;20534;-77
2021/09/19 04:07:59;;;;;;;6.10;5.07;;;13.60;1.00;;;;;;5054399;28;20538;-77
2021/09/19 04:10:26;;;;;;;5.63;5.13;;;13.60;1.00;;;;;;5054503;28;20739;-77
2021/09/19 04:12:53;;;;;;;5.67;4.53;;;13.60;1.00;;;;;;5049547;28;20449;-77
2021/09/19 04:15:21;;;;;;;7.03;4.37;;;13.60;1.00;;;;;;5055535;28;20447;-78
2021/09/19 04:17:48;;;;;;;4.63;4.10;;;13.60;1.00;;;;;;5066366;28;20475;-77
2021/09/19 04:20:15;;;;;;;4.83;4.00;;;13.60;1.00;;;;;;5068707;28;20456;-77
2021/09/19 04:22:42;;;;;;;5.50;4.50;;;13.60;1.00;;;;;;5054699;28;20453;-79
2021/09/19 04:25:10;;;;;;;5.07;4.57;;;13.70;1.00;;;;;;5051288;28;20452;-76
2021/09/19 04:27:38;;;;;;;6.80;4.67;;;13.60;1.00;;;;;;5051073;28;20510;-77
2021/09/19 04:30:06;;;;;;;6.03;4.20;;;13.60;1.00;;;;;;5053445;28;20419;-78
2021/09/19 04:32:34;;;;;;;4.50;4.10;;;13.60;1.00;;;;;;5051157;28;20942;-77
2021/09/19 04:35:01;;;;;;;7.20;4.90;;;13.60;1.00;;;;;;5049223;28;20530;-77
2021/09/19 04:37:28;;;;;;;5.03;4.30;;;13.60;1.00;;;;;;5048970;28;20610;-78
2021/09/19 04:39:54;;;;;;;6.00;4.60;;;13.50;1.00;;;;;;5056368;28;20462;-78
2021/09/19 04:42:22;;;;;;;6.73;4.60;;;13.50;1.00;;;;;;5059458;28;20454;-76
2021/09/19 04:44:50;;;;;;;6.23;5.07;;;13.50;1.00;;;;;;5062310;28;20456;-76
2021/09/19 04:47:18;;;;;;;5.50;4.30;;;13.60;1.00;;;;;;5058743;28;20417;-76
2021/09/19 04:49:46;;;;;;;6.00;4.63;;;13.60;1.00;;;;;;5056984;28;20504;-78
2021/09/19 04:52:13;;;;;;;6.53;4.83;;;13.60;1.00;;;;;;5053312;28;20454;-78
2021/09/19 04:54:39;;;;;;;7.27;5.00;;;13.60;1.00;;;;;;5052784;28;21042;-78
2021/09/19 04:57:06;;;;;;;6.53;4.90;;;13.60;1.00;;;;;;5052546;28;21219;-75
2021/09/19 04:59:33;;;;;;;6.33;4.50;;;13.50;1.00;;;;;;5051873;28;20517;-77
2021/09/19 05:02:00;;;;;;;5.80;5.07;;;13.50;1.00;;;;;;5052600;28;20482;-77
2021/09/19 05:04:27;;;;;;;4.53;4.07;;;13.60;1.00;;;;;;5053341;28;21384;-79
2021/09/19 05:06:55;;;;;;;5.23;4.73;;;13.60;1.00;;;;;;5047492;28;20710;-78
2021/09/19 05:09:21;;;;;;;5.70;4.60;;;13.60;1.00;;;;;;5051624;28;20441;-77
2021/09/19 05:11:48;;;;;;;6.33;4.60;;;13.50;1.00;;;;;;5053397;28;21141;-75
2021/09/19 05:14:14;;;;;;;5.83;4.27;;;13.50;1.00;;;;;;5052847;28;20424;-80
2021/09/19 05:16:41;;;;;;;6.50;4.93;;;13.50;1.00;;;;;;5059822;28;20436;-80
2021/09/19 05:19:08;;;;;;;5.50;4.67;;;13.50;1.00;;;;;;5067159;28;20915;-77
2021/09/19 05:21:35;;;;;;;6.63;4.90;;;13.50;1.00;;;;;;5048455;28;20482;-79
2021/09/19 05:24:03;;;;;;;5.97;4.73;;;13.50;1.00;;;;;;5049936;28;21328;-80
2021/09/19 05:26:30;;;;;;;4.87;4.37;;;13.50;1.00;;;;;;5048725;28;21047;-79
2021/09/19 05:28:56;;;;;;;7.27;5.30;;;13.60;1.00;;;;;;5051791;28;20447;-78
2021/09/19 05:31:24;;;;;;;6.20;4.80;;;13.60;1.00;;;;;;5052850;28;20456;-78
2021/09/19 05:33:51;;;;;;;7.37;5.20;;;13.60;1.00;;;;;;5051492;28;20482;-78
2021/09/19 05:36:18;;;;;;;5.37;4.80;;;13.50;1.00;;;;;;5048870;28;20468;-78
2021/09/19 05:38:44;;;;;;;8.17;5.00;;;13.50;1.00;;;;;;5053725;28;20416;-77
2021/09/19 05:41:12;;;;;;;6.77;5.40;;;13.50;1.00;;;;;;5054450;28;20554;-77
2021/09/19 05:43:39;;;;;;;9.03;4.73;;;13.50;1.00;;;;;;5051214;28;20421;-78
2021/09/19 05:46:05;;;;;;;6.87;4.63;;;13.60;1.00;;;;;;5049378;28;20436;-79
2021/09/19 05:48:32;;;;;;;8.30;4.80;;;13.60;1.00;;;;;;5049811;28;21293;-79
2021/09/19 05:50:59;;;;;;;10.57;5.13;;;13.60;1.00;;;;;;5049683;28;20452;-79
2021/09/19 05:53:26;;;;;;;6.13;5.00;;;13.60;1.00;;;;;;5063977;28;20452;-80
2021/09/19 05:55:53;;;;;;;6.17;4.83;;;13.60;1.00;;;;;;5056179;28;20487;-80
2021/09/19 05:58:21;;;;;;;5.67;4.77;;;13.70;1.00;;;;;;5051372;28;21806;-80
2021/09/19 06:00:48;;;;;;;7.27;5.17;;;13.70;1.00;;;;;;5053713;28;20481;-81
2021/09/19 06:03:14;;;;;;;7.90;5.60;;;13.80;1.00;;;;;;5048629;28;20525;-79
2021/09/19 06:05:41;;;;;;;6.83;4.80;;;13.80;1.00;;;;;;5055553;28;20609;-79
2021/09/19 06:08:08;;;;;;;6.30;5.17;;;13.90;1.00;;;;;;5065328;28;20453;-82
2021/09/19 06:10:34;;;;;;;7.13;5.10;;;13.90;1.00;;;;;;5061385;28;20436;-79
2021/09/19 06:13:01;;;;;;;8.63;5.47;;;13.90;1.00;;;;;;5064531;28;20523;-81
2021/09/19 06:15:29;;;;;;;5.27;4.70;;;13.90;1.00;;;;;;5069226;28;20456;-79
2021/09/19 06:17:56;;;;;;;6.13;5.00;;;13.90;1.00;;;;;;5068122;28;21114;-79
2021/09/19 06:20:22;;;;;;;6.40;5.20;;;14.00;1.00;;;;;;5070640;28;20564;-79
2021/09/19 06:22:49;;;;;;;7.77;5.30;;;14.00;1.00;;;;;;5069078;28;20451;-79
2021/09/19 06:25:16;;;;;;;7.67;4.83;;;14.00;1.00;;;;;;5062870;28;20562;-79
2021/09/19 06:27:43;;;;;;;5.43;4.53;;;14.00;1.00;;;;;;5060140;28;20489;-79
2021/09/19 06:30:11;;;;;;;7.70;5.33;;;14.00;1.00;;;;;;5060995;28;20415;-80
2021/09/19 06:32:39;;;;;;;6.73;5.33;;;14.00;1.00;;;;;;5056479;28;20441;-79
2021/09/19 06:35:06;;;;;;;7.03;5.50;;;14.00;1.00;;;;;;5068972;28;20420;-79
2021/09/19 06:37:33;;;;;;;6.00;5.00;;;14.00;1.00;;;;;;5063569;28;20487;-79
2021/09/19 06:40:00;;;;;;;5.60;5.10;;;14.00;1.00;;;;;;5068080;28;20476;-78
2021/09/19 06:42:26;;;;;;;6.40;5.10;;;14.00;1.00;;;;;;5069276;28;20479;-79
2021/09/19 06:44:53;;;;;;;5.87;4.80;;;14.10;1.00;;;;;;5070854;28;20478;-79
2021/09/19 06:47:20;;;;;;;7.47;5.60;;;14.10;1.00;;;;;;5065347;28;20448;-80
2021/09/19 06:49:48;;;;;;;7.27;5.13;;;14.20;1.00;;;;;;5061627;28;20460;-80
2021/09/19 06:52:15;;;;;;;6.43;5.10;;;14.20;1.00;;;;;;5058135;28;20471;-81
2021/09/19 06:54:42;;;;;;;7.13;5.63;;;14.20;1.00;;;;;;5066394;28;20499;-80
2021/09/19 06:57:09;;;;;;;8.30;5.63;;;14.30;1.00;;;;;;5052671;28;20555;-81
2021/09/19 06:59:36;;;;;;;5.63;4.90;;;14.30;1.00;;;;;;5051636;28;20456;-80
2021/09/19 07:02:03;;;;;;;7.70;5.70;;;14.30;1.00;;;;;;5052345;28;20472;-80
2021/09/19 07:04:30;;;;;;;6.63;5.50;;;14.40;1.00;;;;;;5054329;28;20458;-80
2021/09/19 07:06:58;;;;;;;5.90;5.30;;;14.40;1.00;;;;;;5053853;28;20463;-79
2021/09/19 07:09:25;;;;;;;7.67;6.87;;;14.40;1.00;;;;;;5057011;28;20409;-80
2021/09/19 07:11:51;;;;;;;6.90;5.40;;;14.50;1.00;;;;;;5053712;28;20539;-80
2021/09/19 07:14:18;;;;;;;6.60;5.10;;;14.60;1.00;;;;;;5053132;28;21331;-81
2021/09/19 07:16:45;;;;;;;7.37;5.97;;;14.70;1.00;;;;;;5054824;28;20485;-80
2021/09/19 07:19:11;;;;;;;8.40;4.80;;;14.70;1.00;;;;;;5054643;28;20501;-80
2021/09/19 07:21:38;;;;;;;5.93;5.30;;;14.80;1.00;;;;;;5051318;28;20451;-81
2021/09/19 07:24:06;;;;;;;7.97;5.10;;;14.80;1.00;;;;;;5055898;28;20480;-80
2021/09/19 07:26:33;;;;;;;6.20;5.30;;;14.80;1.00;;;;;;5055641;28;20467;-80
2021/09/19 07:29:00;;;;;;;6.03;5.17;;;14.80;1.00;;;;;;5058289;28;20961;-81
2021/09/19 07:31:27;;;;;;;7.93;6.30;;;14.90;1.00;;;;;;5056573;28;20477;-79
2021/09/19 07:33:54;;;;;;;8.63;5.00;;;14.90;1.00;;;;;;5050598;28;20542;-80
2021/09/19 07:36:25;;;;;;;6.47;4.90;;;15.00;1.00;;;;;;5060669;28;20463;-79
2021/09/19 07:38:52;;;;;;;6.80;5.40;;;15.00;1.00;;;;;;5054661;28;20452;-80
2021/09/19 07:41:23;;;;;;;10.63;5.47;;;15.10;1.00;;;;;;5051875;28;20427;-82
2021/09/19 07:43:50;;;;;;;7.73;5.13;;;15.10;1.00;;;;;;5056923;28;20495;-81
2021/09/19 07:46:18;;;;;;;6.83;6.13;;;15.10;1.00;;;;;;5055902;28;20477;-79
2021/09/19 07:48:47;;;;;;;8.13;5.60;;;15.20;1.00;;;;;;5054064;28;20947;-79
2021/09/19 07:51:14;;;;;;;9.50;7.10;;;15.20;1.00;;;;;;5049541;28;20463;-84
2021/09/19 07:53:42;;;;;;;6.43;5.70;;;15.40;1.00;;;;;;5052726;28;20579;-80
2021/09/19 07:56:08;;;;;;;7.33;6.53;;;15.50;1.00;;;;;;5053479;28;21555;-79
2021/09/19 07:58:37;;;;;;;6.73;6.03;;;15.60;1.00;;;;;;5052805;28;20565;-78
2021/09/19 08:01:04;;;;;;;6.60;5.07;;;15.60;1.00;;;;;;5050270;28;20527;-77
2021/09/19 08:03:30;;;;;;;6.27;5.67;;;15.60;1.00;;;;;;5052407;28;20446;-80
2021/09/19 08:05:57;;;;;;;5.57;4.30;;;15.70;1.00;;;;;;5057891;28;20466;-79
2021/09/19 08:08:24;;;;;;;8.17;5.00;;;15.80;1.00;;;;;;5060268;28;21513;-79
2021/09/19 08:10:51;;;;;;;7.37;5.33;;;15.80;1.00;;;;;;5058823;28;20471;-80
2021/09/19 08:13:20;;;;;;;8.80;5.33;;;15.90;1.00;;;;;;5059654;28;20433;-80
2021/09/19 08:15:48;;;;;;;5.53;4.87;;;15.90;1.00;;;;;;5061272;28;20484;-79
2021/09/19 08:18:14;;;;;;;7.37;5.53;;;15.90;1.00;;;;;;5060166;28;20573;-79
2021/09/19 08:20:41;;;;;;;6.60;4.90;;;16.00;1.00;;;;;;5056673;28;20437;-79
2021/09/19 08:23:08;;;;;;;6.33;4.90;;;16.20;1.00;;;;;;5055686;28;20459;-80
2021/09/19 08:25:34;;;;;;;4.97;4.47;;;16.30;1.00;;;;;;5058451;28;20569;-81
2021/09/19 08:28:01;;;;;;;5.63;5.00;;;16.40;1.00;;;;;;5063977;28;20456;-81
2021/09/19 08:30:28;;;;;;;6.60;4.57;;;16.30;1.00;;;;;;5057621;28;20472;-80
2021/09/19 08:32:57;;;;;;;6.20;5.13;;;16.40;1.00;;;;;;5062419;28;20514;-80
2021/09/19 08:35:24;;;;;;;5.97;4.83;;;16.40;1.00;;;;;;5056982;28;20461;-80
2021/09/19 08:37:50;;;;;;;7.50;5.90;;;16.40;1.00;;;;;;5060836;28;20501;-80
2021/09/19 08:40:17;;;;;;;4.50;4.03;;;16.50;1.00;;;;;;5060101;28;20450;-80
2021/09/19 08:42:45;;;;;;;7.10;5.80;;;16.70;1.00;;;;;;5064357;28;20480;-80
2021/09/19 08:45:13;;;;;;;6.03;5.20;;;16.80;1.00;;;;;;5064165;28;21219;-79
2021/09/19 08:47:39;;;;;;;5.70;4.97;;;16.90;1.00;;;;;;5064470;28;20461;-81
2021/09/19 08:50:10;;;;;;;5.70;4.27;;;16.90;1.00;;;;;;5064877;28;21321;-80
2021/09/19 08:52:37;;;;;;;5.90;4.70;;;17.00;1.00;;;;;;5060214;28;21136;-80
2021/09/19 08:55:05;;;;;;;6.63;4.50;;;17.10;1.00;;;;;;5080987;28;20434;-80
2021/09/19 08:57:31;;;;;;;11.90;4.60;;;17.10;1.00;;;;;;5074530;28;20466;-80
2021/09/19 09:00:02;;;;;;;7.50;5.60;;;17.10;1.00;;;;;;5067427;28;20446;-80
2021/09/19 09:02:29;;;;;;;6.30;5.67;;;17.20;1.00;;;;;;5062471;28;20470;-81
2021/09/19 09:04:58;;;;;;;7.70;4.77;;;17.50;1.00;;;;;;5062926;28;20553;-81
2021/09/19 09:07:26;;;;;;;5.80;5.13;;;17.90;1.00;;;;;;5082882;28;20433;-79
2021/09/19 09:09:57;;;;;;;5.80;4.40;;;18.30;1.00;;;;;;5085204;28;20521;-79
2021/09/19 09:12:25;;;;;;;5.80;4.10;;;18.60;1.00;;;;;;5086690;28;20439;-80
2021/09/19 09:14:54;;;;;;;5.30;4.27;;;19.00;1.00;;;;;;5089513;28;20487;-79
2021/09/19 09:17:23;;;;;;;5.73;4.87;;;19.40;1.00;;;;;;5087275;28;20397;-81
2021/09/19 09:19:51;;;;;;;5.87;5.27;;;19.80;1.00;;;;;;5087664;28;20400;-79
2021/09/19 09:22:21;;;;;;;5.00;4.50;;;20.30;1.00;;;;;;5085524;28;20440;-78
2021/09/19 09:25:09;;;;;;;7.13;4.67;;;20.20;1.00;;;;;;5088793;28;21347;-79
2021/09/19 09:27:41;;;;;;;7.10;5.60;;;20.10;1.00;;;;;;5091700;28;20468;-80
2021/09/19 09:30:18;;;;;;;4.93;4.43;;;20.30;1.00;;;;;;5091169;28;20401;-79
2021/09/19 09:33:00;;;;;;;7.60;4.60;;;20.50;1.00;;;;;;5083935;28;20478;-79
2021/09/19 09:35:34;;;;;;;6.63;4.97;;;20.80;1.00;;;;;;5092401;28;20452;-79
2021/09/19 09:38:01;;;;;;;5.13;4.17;;;21.20;1.00;;;;;;5091795;28;20402;-79
2021/09/19 09:40:31;;;;;;;5.67;4.40;;;21.40;1.00;;;;;;5089778;28;20483;-79
2021/09/19 09:43:03;;;;;;;4.63;4.17;;;21.70;1.00;;;;;;5082004;28;20457;-79
2021/09/19 09:45:31;;;;;;;4.63;4.23;;;22.40;1.00;;;;;;5083819;28;20470;-79
2021/09/19 09:47:58;;;;;;;4.30;3.90;;;23.00;1.00;;;;;;5089491;28;20429;-80
2021/09/19 09:50:26;;;;;;;4.67;4.13;;;23.50;1.00;;;;;;5086739;28;20409;-79
2021/09/19 09:53:08;;;;;;;4.97;4.47;;;24.00;1.00;;;;;;5087933;28;20410;-79
2021/09/19 09:55:36;;;;;;;5.07;4.17;;;24.50;1.00;;;;;;5086075;28;20427;-79
2021/09/19 09:58:09;;;;;;;5.23;4.27;;;24.90;1.00;;;;;;5081321;28;20435;-80
2021/09/19 10:00:37;;;;;;;5.40;3.43;;;25.30;1.00;;;;;;5084556;28;20404;-81
2021/09/19 10:03:04;;;;;;;4.53;3.60;;;25.50;1.00;;;;;;5080270;28;20444;-80
2021/09/19 10:05:32;;;;;;;6.40;5.00;;;25.40;1.00;;;;;;5077631;28;20436;-81
2021/09/19 10:07:59;;;;;;;10.20;4.90;;;25.50;1.00;;;;;;5071891;28;20460;-80
2021/09/19 10:10:29;;;;;;;3.80;3.40;;;25.80;1.00;;;;;;5074667;28;20503;-79
2021/09/19 10:12:58;;;;;;;4.23;3.83;;;25.90;1.00;;;;;;5072929;28;20451;-80
2021/09/19 10:15:27;;;;;;;4.27;3.37;;;25.70;1.00;;;;;;5074909;28;20491;-81
2021/09/19 10:17:55;;;;;;;8.80;8.00;;;25.10;1.00;;;;;;5078401;28;20427;-80
2021/09/19 10:20:25;;;;;;;5.40;3.50;;;25.00;1.00;;;;;;5075876;28;20483;-79
2021/09/19 10:22:59;;;;;;;6.07;3.90;;;24.80;1.00;;;;;;5072555;28;20535;-81
2021/09/19 10:25:41;;;;;;;5.97;3.53;;;24.40;1.00;;;;;;5068955;28;20431;-78
2021/09/19 10:28:26;;;;;;;4.10;3.70;;;23.80;1.00;;;;;;5065393;28;20491;-81
2021/09/19 10:31:25;;;;;;;4.03;3.63;;;23.40;1.00;;;;;;5062903;28;20456;-80
2021/09/19 10:33:55;;;;;;;4.20;3.70;;;23.10;1.00;;;;;;5056296;28;20452;-79
2021/09/19 10:36:25;;;;;;;4.97;3.90;;;22.70;1.00;;;;;;5060615;28;20439;-81
2021/09/19 10:38:52;;;;;;;4.53;3.43;;;22.60;1.00;;;;;;5064990;28;20510;-80
2021/09/19 10:41:21;;;;;;;4.10;3.70;;;22.70;1.00;;;;;;5061237;28;20423;-79
2021/09/19 10:43:53;;;;;;;4.90;3.93;;;22.80;1.00;;;;;;5049398;28;20467;-80
2021/09/19 10:46:40;;;;;;;5.20;3.50;;;22.40;1.00;;;;;;5055980;28;20454;-80
2021/09/19 10:49:13;;;;;;;5.30;4.80;;;22.10;1.00;;;;;;5052905;28;20462;-80
2021/09/19 10:52:06;;;;;;;4.40;3.07;;;21.90;1.00;;;;;;5055921;28;20455;-81
2021/09/19 10:54:45;;;;;;;4.07;3.67;;;21.30;1.00;;;;;;5053135;28;20449;-80
2021/09/19 10:57:19;;;;;;;3.60;3.10;;;20.90;1.00;;;;;;5054741;28;20457;-80
2021/09/19 11:00:17;;;;;;;3.27;2.67;;;20.80;1.00;;;;;;5053163;28;23016;-79
2021/09/19 11:03:18;;;;;;;5.67;4.10;;;20.90;1.00;;;;;;5061707;28;20444;-80
2021/09/19 11:05:50;;;;;;;3.90;3.50;;;20.50;1.00;;;;;;5052359;28;21250;-80
2021/09/19 11:08:38;;;;;;;5.60;4.20;;;20.00;1.00;;;;;;5050182;28;20521;-79
2021/09/19 11:11:24;;;;;;;4.40;3.50;;;19.60;1.00;;;;;;5051328;28;20581;-79
2021/09/19 11:13:56;;;;;;;5.80;3.90;;;19.20;1.00;;;;;;5055749;28;20531;-79
2021/09/19 11:16:34;;;;;;;4.17;3.77;;;19.00;1.00;;;;;;5053984;28;20444;-79
2021/09/19 11:19:04;;;;;;;5.53;3.93;;;18.70;1.00;;;;;;5048265;28;20468;-80
2021/09/19 11:21:47;;;;;;;3.90;3.53;;;18.50;1.00;;;;;;5038108;28;20415;-80
2021/09/19 11:24:20;;;;;;;6.27;4.00;;;18.40;1.00;;;;;;5036829;28;20433;-80
2021/09/19 11:26:51;;;;;;;10.10;4.17;;;18.30;1.00;;;;;;5043349;28;20451;-79
2021/09/19 11:29:23;;;;;;;4.00;3.37;;;18.40;1.00;;;;;;5045089;28;20467;-79
2021/09/19 11:31:53;;;;;;;5.17;4.07;;;18.40;1.00;;;;;;5049884;28;20466;-78
2021/09/19 11:34:22;;;;;;;4.93;4.43;;;18.40;1.00;;;;;;5048089;28;20535;-78
2021/09/19 11:36:51;;;;;;;6.47;4.80;;;18.40;1.00;;;;;;5043824;28;21805;-79
2021/09/19 11:39:18;;;;;;;4.10;3.60;;;18.40;1.00;;;;;;5045784;28;20514;-79
2021/09/19 11:41:47;;;;;;;4.93;4.07;;;18.40;1.00;;;;;;5043576;28;21018;-79
2021/09/19 11:44:15;;;;;;;4.33;3.70;;;18.40;1.00;;;;;;5043708;28;20493;-79
2021/09/19 11:46:45;;;;;;;3.80;3.40;;;18.40;1.00;;;;;;5043319;28;20448;-79
2021/09/19 11:49:14;;;;;;;5.37;3.27;;;18.20;1.00;;;;;;5045656;28;20666;-80
2021/09/19 11:51:42;;;;;;;5.30;4.17;;;18.10;1.00;;;;;;5052444;28;20454;-79
2021/09/19 11:54:12;;;;;;;6.80;3.57;;;18.00;1.00;;;;;;5046408;28;20472;-79
2021/09/19 11:56:42;;;;;;;5.50;3.70;;;18.00;1.00;;;;;;5042873;28;21851;-79
2021/09/19 11:59:14;;;;;;;6.43;4.37;;;17.90;1.00;;;;;;5039308;28;20518;-78
2021/09/19 12:01:41;;;;;;;4.73;3.43;;;18.00;1.00;;;;;;5053054;28;20427;-78
2021/09/19 12:04:09;;;;;;;6.63;4.20;;;18.10;1.00;;;;;;5038758;28;21327;-78
2021/09/19 12:06:39;;;;;;;5.20;4.40;;;18.30;1.00;;;;;;5043888;28;20463;-79
2021/09/19 12:09:10;;;;;;;6.60;4.20;;;18.30;1.00;;;;;;5051167;28;21780;-79
2021/09/19 12:11:46;;;;;;;5.07;4.33;;;18.30;1.00;;;;;;5053120;28;20481;-79
2021/09/19 12:14:20;;;;;;;4.90;4.03;;;18.30;1.00;;;;;;5051779;28;20473;-79
2021/09/19 12:16:57;;;;;;;5.53;3.70;;;18.20;1.00;;;;;;5066786;28;21264;-79
2021/09/19 12:19:24;;;;;;;4.77;3.30;;;18.20;1.00;;;;;;5049742;28;21513;-79
2021/09/19 12:22:01;;;;;;;7.87;5.60;;;18.20;1.00;;;;;;5050188;28;20440;-80
2021/09/19 12:24:30;;;;;;;5.70;3.80;;;18.20;1.00;;;;;;5051976;28;20434;-80
2021/09/19 12:27:14;;;;;;;5.63;3.47;;;18.30;1.00;;;;;;5053093;28;20550;-80
2021/09/19 12:29:42;;;;;;;5.40;3.67;;;18.20;1.00;;;;;;5053867;28;20540;-82
2021/09/19 12:32:09;;;;;;;4.40;3.33;;;18.20;1.00;;;;;;5053399;28;20473;-81
2021/09/19 12:34:36;;;;;;;10.90;8.07;;;18.20;1.00;;;;;;5051420;28;20520;-81
2021/09/19 12:37:05;;;;;;;5.50;3.70;;;18.20;1.00;;;;;;5053892;28;20435;-81
2021/09/19 12:39:33;;;;;;;7.00;4.40;;;18.20;1.00;;;;;;5060940;28;20515;-80
2021/09/19 12:42:02;;;;;;;4.90;4.03;;;18.30;1.00;;;;;;5052603;28;20438;-80
2021/09/19 12:44:32;;;;;;;7.37;4.50;;;18.30;1.00;;;;;;5056679;28;20471;-80
2021/09/19 12:47:02;;;;;;;4.70;3.77;;;18.30;1.00;;;;;;5054222;28;20439;-79
2021/09/19 12:49:30;;;;;;;6.40;4.07;;;18.40;1.00;;;;;;5053198;28;20471;-80
2021/09/19 12:52:07;;;;;;;4.67;3.10;;;18.50;1.00;;;;;;5053273;28;20471;-78
2021/09/19 12:54:36;;;;;;;3.90;3.50;;;18.50;1.00;;;;;;5052688;28;20493;-81
2021/09/19 12:57:03;;;;;;;5.00;3.13;;;18.50;1.00;;;;;;5047314;28;20519;-82
2021/09/19 12:59:30;;;;;;;5.80;3.03;;;18.40;1.00;;;;;;5053328;28;21343;-82
2021/09/19 13:01:56;;;;;;;4.20;3.50;;;18.40;1.00;;;;;;5056421;28;21882;-82
2021/09/19 13:04:23;;;;;;;4.90;4.20;;;18.40;1.00;;;;;;5052078;28;20523;-82
2021/09/19 13:06:50;;;;;;;4.57;3.37;;;18.50;1.00;;;;;;5053299;28;23249;-82